Time;durP1;ratioP1;P1;durP2;ratioP2;P2;SDS_P1;SDS_P2;PMS_P1;PMS_P2;Temp;Humidity;BMP_temperature;BMP_pressure;BME280_temperature;BME280_humidity;BME280_pressure;Samples;Min_cycle;Max_cycle;Signal;HPM_P1;HPM_P2
2022/09/19 00:01:31;;;;;;;7.47;3.47;;;;;;;15.59;55.79;98900.09;1982769;97;25844;-76
2022/09/19 00:04:56;;;;;;;4.22;2.55;;;;;;;15.59;55.71;98903.13;2008758;98;25864;-76
2022/09/19 00:08:27;;;;;;;7.33;2.42;;;;;;;15.59;55.71;98907.97;2024127;97;25796;-76
2022/09/19 00:16:01;;;;;;;3.98;2.20;;;;;;;15.54;55.54;98907.62;2000715;98;25874;-76
2022/09/19 00:19:22;;;;;;;4.58;2.00;;;;;;;15.52;55.56;98906.36;2014651;97;25744;-76
2022/09/19 00:26:38;;;;;;;3.05;1.30;;;;;;;15.53;55.41;98909.39;2001519;96;25733;-75
2022/09/19 00:33:36;;;;;;;3.80;2.00;;;;;;;15.49;55.28;98923.91;1907802;102;26036;-76
2022/09/19 00:37:14;;;;;;;2.50;1.50;;;;;;;15.44;55.24;98922.70;1912372;101;25827;-76
2022/09/19 00:40:44;;;;;;;3.20;1.92;;;;;;;15.40;55.16;98910.53;1912548;103;25793;-76
2022/09/19 00:44:38;;;;;;;2.22;1.27;;;;;;;15.38;55.10;98911.00;1899233;101;25874;-75
2022/09/19 00:48:05;;;;;;;7.75;1.92;;;;;;;15.33;54.99;98919.42;1885907;103;25758;-76
2022/09/19 00:51:39;;;;;;;4.33;1.70;;;;;;;15.32;55.00;98911.11;1873255;103;25743;-76
2022/09/19 00:55:13;;;;;;;3.95;1.80;;;;;;;15.30;54.89;98903.28;1886843;103;25830;-76
2022/09/19 00:58:43;;;;;;;2.92;1.57;;;;;;;15.29;54.87;98909.89;1867320;103;25779;-76
2022/09/19 01:02:09;;;;;;;4.97;1.70;;;;;;;15.29;54.83;98908.58;1910704;102;26005;-76
2022/09/19 01:06:03;;;;;;;3.25;1.45;;;;;;;15.28;54.79;98904.20;1910332;102;25794;-76
2022/09/19 01:09:40;;;;;;;3.20;1.87;;;;;;;15.26;54.75;98896.81;1837673;106;25865;-76
2022/09/19 01:13:44;;;;;;;3.95;1.82;;;;;;;15.22;54.71;98897.74;1824911;104;25813;-76
2022/09/19 01:17:42;;;;;;;3.92;1.35;;;;;;;15.22;54.69;98902.98;1814988;107;25869;-76
2022/09/19 01:21:42;;;;;;;1.85;1.10;;;;;;;15.18;54.65;98897.39;1851115;106;25851;-76
2022/09/19 01:29:30;;;;;;;3.45;1.65;;;;;;;15.16;54.64;98904.45;1940440;100;25830;-76
2022/09/19 01:33:24;;;;;;;2.35;1.35;;;;;;;15.13;54.64;98905.81;1970476;99;25919;-76
2022/09/19 01:37:32;;;;;;;2.40;1.30;;;;;;;15.10;54.60;98906.73;1968676;97;25428;-77
2022/09/19 01:41:34;;;;;;;3.62;1.65;;;;;;;15.09;54.64;98905.86;1968427;99;25831;-75
2022/09/19 01:44:54;;;;;;;4.28;1.47;;;;;;;15.09;54.59;98907.62;2002987;96;25802;-76
2022/09/19 01:49:05;;;;;;;5.25;2.05;;;;;;;15.06;54.48;98913.79;2053997;96;25741;-76
2022/09/19 01:53:06;;;;;;;3.30;1.42;;;;;;;14.99;54.51;98917.88;2039753;96;25677;-77
2022/09/19 01:57:24;;;;;;;3.08;1.27;;;;;;;14.93;54.57;98917.52;2010976;98;25748;-75
2022/09/19 02:01:25;;;;;;;4.33;1.77;;;;;;;14.87;54.53;98921.56;1931532;101;25790;-76
2022/09/19 02:09:30;;;;;;;4.83;1.70;;;;;;;14.79;54.57;98924.33;1856109;105;26173;-78
2022/09/19 02:13:03;;;;;;;3.98;1.35;;;;;;;14.74;54.58;98924.83;1853467;105;25847;-78
2022/09/19 02:17:03;;;;;;;4.85;1.55;;;;;;;14.67;54.57;98921.89;1840699;106;25860;-77
2022/09/19 02:20:51;;;;;;;5.30;1.47;;;;;;;14.63;54.60;98924.16;1840110;106;25494;-75
2022/09/19 02:24:34;;;;;;;3.95;1.82;;;;;;;14.60;54.67;98926.37;1839977;106;25881;-76
2022/09/19 02:28:18;;;;;;;4.75;1.75;;;;;;;14.55;54.65;98928.66;1840123;105;25548;-75
2022/09/19 02:31:58;;;;;;;2.92;1.52;;;;;;;14.50;54.61;98927.41;1871816;105;26143;-75
2022/09/19 02:35:34;;;;;;;3.33;2.27;;;;;;;14.43;54.69;98924.43;1869495;104;25952;-75
2022/09/19 02:39:36;;;;;;;;;;;;;;;;;;;;;
2022/09/19 02:43:33;;;;;;;3.60;1.82;;;;;;;14.35;54.78;98931.55;1883805;104;25872;-75
2022/09/19 02:47:24;;;;;;;2.30;1.60;;;;;;;14.35;54.82;98933.73;1885363;104;26013;-75
2022/09/19 02:55:14;;;;;;;4.40;1.67;;;;;;;14.32;54.74;98932.91;1913395;103;25781;-76
2022/09/19 02:58:49;;;;;;;5.33;1.47;;;;;;;14.30;54.78;98933.36;1935824;102;25762;-76
2022/09/19 03:02:38;;;;;;;3.22;1.82;;;;;;;14.30;54.73;98932.91;1938317;100;25821;-76
2022/09/19 03:06:17;;;;;;;2.77;1.65;;;;;;;14.27;54.73;98929.47;1932520;101;25786;-75
2022/09/19 03:10:17;;;;;;;3.83;2.12;;;;;;;14.27;54.74;98930.34;1964061;98;25737;-75
2022/09/19 03:13:59;;;;;;;5.10;2.20;;;;;;;14.26;54.72;98928.61;1926409;101;26033;-75
2022/09/19 03:17:49;;;;;;;2.47;1.50;;;;;;;14.22;54.69;98934.80;1917666;101;26024;-74
2022/09/19 03:21:22;;;;;;;4.60;1.50;;;;;;;14.21;54.69;98935.69;1911624;101;25998;-77
2022/09/19 03:25:01;;;;;;;3.92;1.98;;;;;;;14.15;54.69;98937.95;1911808;100;26014;-75
2022/09/19 03:28:33;;;;;;;3.92;1.52;;;;;;;14.08;54.69;98942.85;1911793;100;25799;-75
2022/09/19 03:32:05;;;;;;;6.60;1.90;;;;;;;13.94;54.77;98944.34;1892944;103;30974;-76
2022/09/19 03:35:56;;;;;;;4.20;2.25;;;;;;;13.80;55.01;98949.32;1935809;101;26436;-75
2022/09/19 03:39:35;;;;;;;7.62;1.82;;;;;;;13.68;55.20;98949.91;1939343;100;25870;-75
2022/09/19 03:43:14;;;;;;;;;;;;;;;;;;;;;
2022/09/19 03:46:43;;;;;;;4.80;1.75;;;;;;;13.57;55.57;98960.95;1903279;101;25744;-76
2022/09/19 03:50:18;;;;;;;2.70;1.75;;;;;;;13.58;55.63;98952.66;1913161;101;25949;-76
2022/09/19 03:54:10;;;;;;;2.15;1.70;;;;;;;13.60;55.66;98964.85;1893205;103;25873;-76
2022/09/19 03:57:33;;;;;;;6.65;1.70;;;;;;;13.59;55.73;98960.47;1906345;100;26893;-76
2022/09/19 04:00:59;;;;;;;6.47;2.27;;;;;;;13.54;55.72;98963.61;1923673;101;31359;-76
2022/09/19 04:04:39;;;;;;;4.58;2.08;;;;;;;13.52;55.80;98963.19;1921803;101;25885;-76
2022/09/19 04:08:02;;;;;;;3.27;1.98;;;;;;;13.51;55.82;98958.40;1867526;104;25872;-76
2022/09/19 04:11:23;;;;;;;2.95;1.95;;;;;;;13.48;55.93;98964.11;1868013;101;31030;-76
2022/09/19 04:14:44;;;;;;;3.30;2.37;;;;;;;13.49;55.94;98969.77;1867075;104;26059;-76
2022/09/19 04:18:11;;;;;;;4.53;1.75;;;;;;;13.49;55.92;98971.94;1867791;104;25856;-76
2022/09/19 04:21:44;;;;;;;4.67;2.25;;;;;;;13.48;55.95;98971.97;1867556;104;26000;-76
2022/09/19 04:25:10;;;;;;;8.95;1.98;;;;;;;13.47;55.99;98976.34;1873170;103;25904;-76
2022/09/19 04:28:43;;;;;;;3.60;1.70;;;;;;;13.45;56.01;98975.48;1870629;101;26064;-76
2022/09/19 04:32:04;;;;;;;2.17;1.90;;;;;;;13.40;56.08;98977.30;1821455;105;25945;-76
2022/09/19 04:39:13;;;;;;;3.37;2.25;;;;;;;13.32;56.20;98986.95;1791929;108;26149;-76
2022/09/19 04:42:42;;;;;;;4.50;2.55;;;;;;;13.30;56.25;98988.73;1827313;105;25873;-75
2022/09/19 04:46:21;;;;;;;3.67;2.37;;;;;;;13.26;56.33;98994.41;1822038;106;25831;-75
2022/09/19 04:49:46;;;;;;;3.05;2.15;;;;;;;13.25;56.39;98991.83;1828738;106;25772;-75
2022/09/19 04:53:16;;;;;;;6.22;2.92;;;;;;;13.29;56.39;98990.91;1825542;107;26015;-75
2022/09/19 05:00:14;;;;;;;4.25;2.50;;;;;;;13.19;56.38;98984.41;1822113;107;26114;-76
2022/09/19 05:03:43;;;;;;;2.65;2.42;;;;;;;13.27;56.38;98996.62;1838461;106;25832;-75
2022/09/19 05:07:08;;;;;;;4.47;2.77;;;;;;;13.27;56.45;99004.47;1838694;105;26501;-76
2022/09/19 05:10:42;;;;;;;3.12;2.30;;;;;;;13.31;56.29;99004.86;1838686;106;25958;-76
2022/09/19 05:14:24;;;;;;;2.40;2.20;;;;;;;13.30;56.25;99010.98;1838686;106;25794;-76
2022/09/19 05:18:05;;;;;;;3.95;3.37;;;;;;;13.26;56.24;99010.11;1833809;106;25909;-76
2022/09/19 05:21:36;;;;;;;5.37;2.85;;;;;;;13.25;56.23;99013.62;1861692;103;25923;-76
2022/09/19 05:25:02;;;;;;;6.37;2.45;;;;;;;13.24;56.29;99015.83;1865821;103;27082;-76
2022/09/19 05:28:55;;;;;;;6.60;3.72;;;;;;;13.25;56.32;99021.47;1941165;99;25896;-76
2022/09/19 05:32:20;;;;;;;6.53;4.50;;;;;;;13.26;56.28;99020.58;1908076;99;26059;-77
2022/09/19 05:36:05;;;;;;;3.35;3.05;;;;;;;13.24;56.47;99017.13;1911504;102;25821;-75
2022/09/19 05:39:39;;;;;;;4.08;3.05;;;;;;;13.26;56.29;99026.27;1873251;104;25819;-76
2022/09/19 05:43:21;;;;;;;4.03;3.30;;;;;;;13.28;56.29;99033.67;1855630;104;43521;-77
2022/09/19 05:46:57;;;;;;;3.80;2.80;;;;;;;13.49;56.17;99033.45;1875942;103;32603;-75
2022/09/19 05:50:41;;;;;;;3.35;3.02;;;;;;;13.55;55.97;99038.64;1928948;99;25796;-75
2022/09/19 05:54:14;;;;;;;4.55;3.40;;;;;;;13.52;55.99;99042.59;1946165;99;25842;-75
2022/09/19 05:57:58;;;;;;;3.10;2.80;;;;;;;13.51;56.03;99046.11;1877522;104;26436;-74
2022/09/19 06:05:11;;;;;;;2.95;2.40;;;;;;;13.54;55.99;99048.70;1848685;105;26101;-79
2022/09/19 06:08:39;;;;;;;2.87;2.55;;;;;;;13.57;55.95;99054.35;1849195;105;25792;-74
2022/09/19 06:12:13;;;;;;;3.35;2.95;;;;;;;13.62;55.97;99060.39;1834060;105;26344;-75
2022/09/19 06:15:34;;;;;;;3.25;2.80;;;;;;;13.69;55.93;99068.17;1979718;98;25345;-74
2022/09/19 06:19:06;;;;;;;3.83;2.85;;;;;;;13.83;55.88;99071.09;2016676;96;31480;-75
2022/09/19 06:22:27;;;;;;;3.35;2.60;;;;;;;14.01;55.73;99070.91;2015669;96;26478;-79
2022/09/19 06:26:17;;;;;;;6.83;2.95;;;;;;;14.17;55.58;99076.81;2005889;96;25833;-75
2022/09/19 06:30:05;;;;;;;8.55;2.95;;;;;;;14.30;55.38;99083.64;2099394;92;25789;-74
2022/09/19 06:34:05;;;;;;;6.10;3.02;;;;;;;14.50;56.58;99084.73;2108861;92;25798;-74
2022/09/19 06:37:30;;;;;;;4.08;2.98;;;;;;;14.61;56.34;99089.84;2109887;92;25801;-75
2022/09/19 06:41:04;;;;;;;3.35;2.52;;;;;;;14.61;56.18;99098.59;2110641;92;25787;-74
2022/09/19 06:44:52;;;;;;;7.03;3.10;;;;;;;14.62;56.09;99101.64;2117779;92;25838;-75
2022/09/19 06:48:37;;;;;;;3.37;2.90;;;;;;;14.70;55.97;99100.21;2126511;90;25720;-77
2022/09/19 06:56:24;;;;;;;;;;;;;;;;;;;;;
2022/09/19 07:00:02;;;;;;;4.45;3.42;;;;;;;14.83;55.62;99113.59;2065578;94;25731;-75
2022/09/19 07:03:29;;;;;;;7.07;3.50;;;;;;;14.90;55.39;99116.13;2062327;94;25813;-75
2022/09/19 07:07:10;;;;;;;7.90;4.05;;;;;;;14.90;55.31;99116.13;1977263;100;25805;-74
2022/09/19 07:10:39;;;;;;;5.42;3.83;;;;;;;14.91;55.23;99133.15;2001898;97;25798;-73
2022/09/19 07:14:12;;;;;;;5.87;4.20;;;;;;;15.00;55.42;99125.61;1992059;98;25802;-74
2022/09/19 07:17:34;;;;;;;8.73;3.72;;;;;;;15.06;55.18;99132.95;2035394;96;26134;-73
2022/09/19 07:21:07;;;;;;;7.00;4.30;;;;;;;15.08;55.09;99129.83;2035392;96;31042;-74
2022/09/19 07:24:34;;;;;;;4.67;4.20;;;;;;;15.07;55.10;99134.67;2034713;96;25811;-73
2022/09/19 07:28:30;;;;;;;9.58;4.40;;;;;;;15.08;55.00;99142.95;2002822;97;26159;-74
2022/09/19 07:32:06;;;;;;;4.30;3.90;;;;;;;15.11;54.90;99152.09;1975620;98;33024;-75
2022/09/19 07:35:46;;;;;;;4.80;4.35;;;;;;;15.13;54.79;99152.09;1978025;98;26013;-74
2022/09/19 07:39:29;;;;;;;6.42;3.87;;;;;;;15.14;54.73;99159.08;2000693;98;25691;-76
2022/09/19 07:43:26;;;;;;;5.28;4.17;;;;;;;15.14;54.63;99159.08;2035871;95;25870;-74
2022/09/19 07:47:34;;;;;;;4.55;3.77;;;;;;;15.14;54.59;99166.09;2035487;95;26106;-75
2022/09/19 07:59:05;;;;;;;;;;;;;;;;;;;;;
2022/09/19 08:02:54;;;;;;;8.15;4.12;;;;;;;15.24;54.54;99184.30;2007217;94;25907;-80
2022/09/19 08:06:17;;;;;;;5.08;4.53;;;;;;;15.21;54.62;99193.98;1931413;100;25867;-80
2022/09/19 08:13:40;;;;;;;4.08;3.65;;;;;;;15.09;55.87;99202.46;1996267;97;25936;-80
2022/09/19 08:21:01;;;;;;;4.47;4.08;;;;;;;14.82;56.35;99198.89;1804445;107;25877;-80
2022/09/19 08:24:35;;;;;;;6.40;3.98;;;;;;;14.78;56.48;99205.03;1752212;111;26253;-80
2022/09/19 08:28:21;;;;;;;4.83;3.83;;;;;;;14.85;56.96;99202.34;1708673;112;25915;-80
2022/09/19 08:32:21;;;;;;;;;;;;;;;;;;;;;
2022/09/19 08:36:18;;;;;;;4.17;3.83;;;;;;;15.03;57.36;99213.03;1685980;115;25905;-81
2022/09/19 08:47:23;;;;;;;10.75;4.42;;;;;;;15.25;57.61;99225.86;1648631;117;26745;-78
2022/09/19 08:51:18;;;;;;;7.22;3.60;;;;;;;15.37;58.59;99237.97;1689481;115;26088;-79
2022/09/19 08:55:13;;;;;;;;;;;;;;;;;;;;;
2022/09/19 08:59:10;;;;;;;7.87;4.20;;;;;;;15.30;58.02;99234.55;1708419;113;26109;-78
2022/09/19 09:03:02;;;;;;;4.92;4.42;;;;;;;15.26;58.65;99240.74;1714618;114;26613;-79
2022/09/19 09:07:08;;;;;;;6.70;3.87;;;;;;;15.17;58.66;99242.17;1721701;113;25872;-80
2022/09/19 09:11:17;;;;;;;6.33;3.55;;;;;;;15.17;58.73;99242.17;1705361;113;26166;-79
2022/09/19 09:19:33;;;;;;;6.60;3.15;;;;;;;15.32;59.08;99250.72;1677832;114;25903;-81
2022/09/19 09:23:26;;;;;;;3.90;2.50;;;;;;;15.44;58.26;99243.09;1693155;113;26006;-81
2022/09/19 09:31:12;;;;;;;;;;;;;;;;;;;;;
2022/09/19 09:45:03;;;;;;;4.25;1.95;;;;;;;14.56;58.31;99259.52;1797938;108;26186;-82
2022/09/19 09:48:58;;;;;;;4.45;1.70;;;;;;;14.35;58.53;99256.64;1819009;106;26026;-82
2022/09/19 09:57:15;;;;;;;;;;;;;;;;;;;;;
2022/09/19 10:05:03;;;;;;;3.08;2.00;;;;;;;14.20;58.42;99266.81;1825545;107;26004;-79
2022/09/19 10:09:20;;;;;;;2.65;1.85;;;;;;;14.10;58.41;99271.26;;;;
2022/09/19 10:13:12;;;;;;;2.10;1.40;;;;;;;14.00;58.59;99266.98;1834997;107;26009;-81
2022/09/19 10:17:05;;;;;;;7.60;1.87;;;;;;;13.99;58.67;99277.04;1818083;107;25949;-79
2022/09/19 10:21:02;;;;;;;;;;;;;;;;;;;;;
2022/09/19 10:24:53;;;;;;;2.40;1.77;;;;;;;13.92;58.89;99278.83;1749778;112;26868;-81
2022/09/19 10:28:51;;;;;;;2.00;1.70;;;;;;;13.92;58.89;99290.63;1788091;110;25900;-79
2022/09/19 10:33:02;;;;;;;1.75;1.45;;;;;;;13.95;59.08;99291.05;1772168;110;26584;-79
2022/09/19 10:52:27;;;;;;;3.92;2.10;;;;;;;13.88;59.35;99311.62;1634749;117;26059;-79
2022/09/19 11:01:27;;;;;;;;;;;;;;;;;;;;;
2022/09/19 11:05:51;;;;;;;;;;;;;;;;;;;;;
2022/09/19 11:19:37;;;;;;;1.98;1.50;;;;;;;14.84;59.64;99326.97;1652028;118;25476;-76
2022/09/19 11:23:56;;;;;;;3.22;1.95;;;;;;;15.14;59.19;99327.08;1655138;116;25992;-77
2022/09/19 11:28:17;;;;;;;1.62;1.52;;;;;;;15.29;58.81;99328.66;1653969;118;25892;-77
2022/09/19 11:32:31;;;;;;;3.87;1.82;;;;;;;15.43;58.50;99328.48;1643737;118;26027;-76
2022/09/19 11:36:45;;;;;;;1.80;1.25;;;;;;;15.60;58.25;99334.38;1671227;116;26020;-77
2022/09/19 11:50:05;;;;;;;2.08;1.40;;;;;;;15.92;57.39;99340.52;1612956;120;25979;-80
2022/09/19 11:54:34;;;;;;;1.57;1.37;;;;;;;16.02;57.15;99335.54;1612280;120;25912;-75
2022/09/19 11:58:12;;;;;;;3.15;1.40;;;;;;;16.04;56.91;99341.66;1643842;115;26047;-77
2022/09/19 12:02:31;;;;;;;4.75;1.40;;;;;;;16.09;56.71;99349.46;1652355;119;26138;-76
2022/09/19 12:10:35;;;;;;;;;;;;;;;;;;;;;
2022/09/19 12:18:24;;;;;;;1.65;1.00;;;;;;;16.34;56.13;99342.52;1591954;121;25973;-77
2022/09/19 12:22:10;;;;;;;1.72;0.80;;;;;;;16.44;55.99;99350.23;1643905;116;25849;-79
2022/09/19 12:26:01;;;;;;;2.05;1.47;;;;;;;16.50;55.83;99347.50;1674092;116;25777;-77
2022/09/19 12:30:01;;;;;;;1.45;0.85;;;;;;;16.50;55.73;99351.45;1670564;116;26599;-76
2022/09/19 12:33:55;;;;;;;1.60;0.98;;;;;;;16.57;55.64;99356.16;1652281;114;25983;-77
2022/09/19 12:38:06;;;;;;;;;;;;;;;;;;;;;
2022/09/19 12:42:34;;;;;;;;;;;;;;;;;;;;;
2022/09/19 12:46:27;;;;;;;3.25;2.15;;;;;;;16.67;55.47;99360.36;1623626;118;25500;-80
2022/09/19 12:50:40;;;;;;;4.12;1.52;;;;;;;16.60;55.73;99363.10;1622686;120;25952;-81
2022/09/19 12:54:16;;;;;;;4.45;2.05;;;;;;;16.49;56.20;99361.97;1626644;119;25882;-81
2022/09/19 12:58:06;;;;;;;3.02;1.75;;;;;;;16.45;56.51;99361.61;1626915;120;25886;-81
2022/09/19 13:01:47;;;;;;;2.62;1.52;;;;;;;16.42;56.59;99366.47;1626758;119;25958;-81
2022/09/19 13:06:02;;;;;;;2.50;1.10;;;;;;;16.41;56.83;99367.83;1627494;119;26093;-81
2022/09/19 13:09:54;;;;;;;9.10;2.47;;;;;;;16.42;56.93;99370.87;1668437;114;26036;-87
2022/09/19 13:13:54;;;;;;;9.10;1.72;;;;;;;16.57;58.99;99374.99;1690673;110;26075;-85
2022/09/19 13:25:37;;;;;;;5.55;1.47;;;;;;;17.80;60.81;99381.02;1736517;112;26517;-81
2022/09/19 13:29:08;;;;;;;5.33;2.25;;;;;;;17.84;59.10;99392.36;1734415;110;25922;-80
2022/09/19 13:33:00;;;;;;;4.28;1.37;;;;;;;17.66;59.07;99390.97;1735892;112;26018;-82
2022/09/19 13:36:37;;;;;;;2.30;1.12;;;;;;;17.50;58.64;99396.99;1727490;113;26020;-81
2022/09/19 13:40:22;;;;;;;1.72;1.02;;;;;;;17.38;58.74;99390.22;1712885;114;26523;-81
2022/09/19 13:44:30;;;;;;;5.90;1.15;;;;;;;17.27;58.58;99400.08;1721729;113;26072;-81
2022/09/19 13:48:19;;;;;;;2.50;0.90;;;;;;;17.20;58.60;99392.74;1736000;112;26021;-82
2022/09/19 13:52:06;;;;;;;;;;;;;;;;;;;;;
2022/09/19 13:55:52;;;;;;;2.40;1.00;;;;;;;17.00;58.31;99401.02;1689809;116;25918;-81
2022/09/19 13:59:39;;;;;;;3.30;1.20;;;;;;;16.95;58.22;99405.51;1759770;111;25848;-82
2022/09/19 14:03:37;;;;;;;3.37;1.10;;;;;;;16.89;58.06;99417.91;1799652;108;25695;-84
2022/09/19 14:07:19;;;;;;;;;;;;;;;;;;;;;
2022/09/19 14:14:47;;;;;;;2.33;1.02;;;;;;;16.73;57.75;99415.50;1744048;112;25897;-82
2022/09/19 14:18:56;;;;;;;3.17;1.80;;;;;;;16.64;57.67;99414.36;1768497;110;25883;-82
2022/09/19 14:22:37;;;;;;;2.25;1.30;;;;;;;16.55;57.29;99421.53;1694662;114;26580;-82
2022/09/19 14:30:39;;;;;;;1.92;1.47;;;;;;;15.88;56.94;99411.55;1695185;116;25909;-81
2022/09/19 14:34:32;;;;;;;4.00;1.37;;;;;;;15.64;57.10;99408.77;1664470;117;25983;-81
2022/09/19 14:38:45;;;;;;;1.62;1.22;;;;;;;15.44;57.16;99405.94;1707603;114;25849;-89
2022/09/19 14:47:07;;;;;;;1.65;1.10;;;;;;;15.10;57.68;99414.63;1669435;114;25870;-81
2022/09/19 14:50:56;;;;;;;;;;;;;;;15.01;58.13;99410.78;1662834;117;25503;-82
2022/09/19 14:54:31;;;;;;;2.30;1.00;;;;;;;15.03;58.41;99410.33;1652279;117;26062;-81
2022/09/19 14:58:03;;;;;;;3.50;1.45;;;;;;;14.97;58.65;99410.39;1633708;119;25946;-81
2022/09/19 15:01:35;;;;;;;3.55;1.27;;;;;;;14.84;58.74;99407.87;1667094;118;25877;-82
2022/09/19 15:05:38;;;;;;;3.58;1.30;;;;;;;14.82;59.04;99407.03;1686130;114;25928;-81
2022/09/19 15:09:18;;;;;;;1.85;1.47;;;;;;;14.76;59.23;99410.16;1680303;115;25926;-81
2022/09/19 15:13:13;;;;;;;;;;;;;;;;;;;;;
2022/09/19 15:16:32;;;;;;;4.50;1.37;;;;;;;14.97;59.58;99415.64;1770861;106;25869;-81
2022/09/19 15:20:37;;;;;;;3.42;1.57;;;;;;;14.95;59.46;99417.39;1845374;105;25848;-81
2022/09/19 15:24:15;;;;;;;3.50;1.32;;;;;;;14.77;59.42;99419.30;1795412;108;26236;-82
2022/09/19 15:27:56;;;;;;;1.92;1.02;;;;;;;14.69;59.76;99425.52;1809984;108;26328;-82
2022/09/19 15:31:45;;;;;;;2.55;1.40;;;;;;;14.84;59.92;99426.69;1816736;107;25437;-81
2022/09/19 15:35:17;;;;;;;3.10;1.42;;;;;;;14.90;59.91;99424.45;1824039;105;25695;-81
2022/09/19 15:39:02;;;;;;;1.35;1.20;;;;;;;14.94;60.08;99432.27;1823443;107;25841;-82
2022/09/19 15:46:08;;;;;;;1.92;1.40;;;;;;;15.19;60.05;99431.61;1819805;108;25892;-83
2022/09/19 15:49:48;;;;;;;3.00;1.80;;;;;;;15.20;59.70;99432.47;1797106;108;25861;-82
2022/09/19 15:53:40;;;;;;;4.33;1.75;;;;;;;15.13;59.82;99434.29;1743303;111;26050;-83
2022/09/19 15:57:38;;;;;;;4.12;1.72;;;;;;;15.21;59.87;99433.75;1750319;111;25932;-82
2022/09/19 16:01:27;;;;;;;2.60;1.30;;;;;;;15.24;59.78;99440.73;1803771;107;26167;-81
2022/09/19 16:05:31;;;;;;;3.15;1.57;;;;;;;15.26;59.85;99434.59;1834695;106;25994;-81
2022/09/19 16:12:44;;;;;;;3.45;1.57;;;;;;;14.91;59.62;99446.73;1934099;101;26048;-81
2022/09/19 16:20:33;;;;;;;2.98;2.05;;;;;;;14.69;60.00;99449.12;1881458;103;25818;-82
2022/09/19 16:27:31;;;;;;;4.78;1.72;;;;;;;14.64;60.21;99455.70;1776674;109;25967;-81
2022/09/19 16:31:35;;;;;;;3.70;1.92;;;;;;;14.56;60.42;99456.22;1765713;110;26539;-82
2022/09/19 16:35:08;;;;;;;4.60;1.50;;;;;;;14.44;60.47;99463.68;1767094;110;25895;-81
2022/09/19 16:38:40;;;;;;;3.12;1.52;;;;;;;14.35;60.65;99462.02;1766743;107;25961;-83
2022/09/19 16:42:26;;;;;;;3.50;1.72;;;;;;;14.44;60.90;99470.23;1780592;110;26636;-81
2022/09/19 16:46:07;;;;;;;4.17;2.12;;;;;;;14.41;61.46;99466.35;1742189;111;26105;-82
2022/09/19 16:49:33;;;;;;;2.83;1.70;;;;;;;14.59;61.12;99469.31;1763389;110;25843;-82
2022/09/19 16:53:17;;;;;;;5.53;1.90;;;;;;;14.56;60.93;99474.13;1786849;108;25781;-81
2022/09/19 16:56:53;;;;;;;2.58;1.57;;;;;;;14.48;60.85;99471.98;1801279;106;26321;-82
2022/09/19 17:07:39;;;;;;;1.72;1.17;;;;;;;14.70;60.88;99478.41;1766281;110;26174;-76
2022/09/19 17:11:09;;;;;;;3.45;1.90;;;;;;;14.83;60.65;99479.61;1749199;110;25966;-76
2022/09/19 17:14:50;;;;;;;1.98;1.30;;;;;;;14.94;60.45;99473.40;1749483;110;25932;-76
2022/09/19 17:18:28;;;;;;;2.12;1.37;;;;;;;15.01;60.25;99475.08;1683457;116;26162;-79
2022/09/19 17:22:08;;;;;;;1.92;1.27;;;;;;;15.03;60.04;99481.20;1685239;116;26001;-77
2022/09/19 17:25:54;;;;;;;2.67;1.62;;;;;;;15.06;59.92;99489.92;1702460;114;26626;-75
2022/09/19 17:29:28;;;;;;;1.75;0.98;;;;;;;15.10;59.82;99495.56;1714252;111;26057;-76
2022/09/19 17:33:19;;;;;;;2.08;1.10;;;;;;;15.17;59.66;99491.58;1735863;111;25888;-77
2022/09/19 17:36:51;;;;;;;4.12;1.52;;;;;;;15.19;59.53;99492.44;1697303;111;26010;-79
2022/09/19 17:40:13;;;;;;;3.08;1.55;;;;;;;15.21;59.42;99498.08;1769263;110;26164;-80
2022/09/19 17:43:51;;;;;;;3.58;2.10;;;;;;;15.21;59.31;99505.09;1781934;110;25883;-83
2022/09/19 17:47:39;;;;;;;2.92;1.77;;;;;;;15.15;59.33;99502.06;1824451;106;25791;-81
2022/09/19 17:51:12;;;;;;;2.87;1.85;;;;;;;15.13;59.31;99506.48;1841528;107;25785;-75
2022/09/19 17:54:39;;;;;;;4.25;2.42;;;;;;;15.08;59.32;99498.63;1867042;104;25559;-82
2022/09/19 17:58:53;;;;;;;3.30;2.70;;;;;;;15.08;59.37;99510.89;1869838;103;26024;-76
2022/09/19 18:06:14;;;;;;;2.90;2.33;;;;;;;15.04;59.37;99500.86;1945757;97;25870;-78
2022/09/19 18:09:45;;;;;;;4.03;2.77;;;;;;;15.05;59.41;99510.50;1969922;97;25793;-78
2022/09/19 18:13:30;;;;;;;2.83;2.52;;;;;;;15.06;59.41;99515.30;2011149;93;26382;-80
2022/09/19 18:20:32;;;;;;;4.83;3.27;;;;;;;15.00;59.48;99515.34;2091390;91;25787;-79
2022/09/19 18:24:10;;;;;;;3.25;2.60;;;;;;;15.00;59.49;99510.96;2089845;92;25796;-76
2022/09/19 18:28:12;;;;;;;3.67;2.60;;;;;;;15.00;59.52;99516.66;2091809;90;25916;-76
2022/09/19 18:31:40;;;;;;;3.08;2.55;;;;;;;14.99;59.54;99504.42;2086346;93;25796;-81
2022/09/19 18:35:13;;;;;;;3.05;2.58;;;;;;;14.97;59.54;99514.92;2090541;92;25803;-80
2022/09/19 18:38:41;;;;;;;4.75;3.10;;;;;;;14.96;59.59;99513.63;2090451;92;26477;-83
2022/09/19 18:42:07;;;;;;;4.55;3.12;;;;;;;14.96;59.60;99513.63;2039318;93;25833;-82
2022/09/19 18:45:39;;;;;;;3.30;2.58;;;;;;;14.95;59.66;99515.39;2123210;90;25773;-77
2022/09/19 18:49:20;;;;;;;4.55;2.95;;;;;;;14.94;59.68;99516.70;2153141;91;25748;-80
2022/09/19 18:52:50;;;;;;;3.80;2.92;;;;;;;14.91;59.70;99511.03;2297395;85;25647;-77
2022/09/19 18:56:28;;;;;;;10.68;3.25;;;;;;;14.91;59.78;99518.90;2307829;83;26067;-78
2022/09/19 18:59:54;;;;;;;4.42;3.30;;;;;;;14.90;59.83;99514.55;2192537;88;26613;-76
2022/09/19 19:03:20;;;;;;;3.58;3.10;;;;;;;14.91;59.85;99521.52;2242554;86;25968;-79
2022/09/19 19:07:05;;;;;;;;;;;;;;;;;;;;;
2022/09/19 19:10:22;;;;;;;4.85;3.60;;;;;;;14.88;59.94;99516.30;2228535;87;27623;-74
2022/09/19 19:13:52;;;;;;;4.53;3.72;;;;;;;14.87;59.99;99519.81;2233112;86;25684;-80
2022/09/19 19:17:17;;;;;;;4.72;3.30;;;;;;;14.88;60.03;99521.13;2191603;88;25664;-77
2022/09/19 19:20:47;;;;;;;5.03;4.53;;;;;;;14.86;60.09;99522.88;2158047;90;25835;-76
2022/09/19 19:24:17;;;;;;;8.10;4.28;;;;;;;14.85;60.12;99526.41;2180569;89;26409;-76
2022/09/19 19:27:45;;;;;;;3.87;3.52;;;;;;;14.85;60.16;99519.84;2180627;88;25797;-80
2022/09/19 19:31:13;;;;;;;4.40;4.00;;;;;;;14.84;60.21;99523.77;2180853;90;25769;-80
2022/09/19 19:34:33;;;;;;;5.07;4.57;;;;;;;14.82;60.28;99522.48;2195428;90;25705;-77
2022/09/19 19:38:02;;;;;;;4.67;3.60;;;;;;;14.83;60.30;99527.28;2195035;88;25762;-75
2022/09/19 19:41:31;;;;;;;5.12;3.92;;;;;;;14.85;60.35;99530.78;2190501;90;25761;-77
2022/09/19 19:44:56;;;;;;;6.00;4.58;;;;;;;14.88;60.30;99539.50;2169221;88;26112;-79
2022/09/19 19:48:25;;;;;;;3.52;3.22;;;;;;;14.90;60.28;99540.78;2153108;90;26219;-75
2022/09/19 19:52:03;;;;;;;5.28;4.20;;;;;;;14.91;60.26;99543.83;2173743;89;25825;-78
2022/09/19 19:55:29;;;;;;;4.97;4.37;;;;;;;14.88;60.30;99538.19;2235841;83;26605;-76
2022/09/19 19:59:13;;;;;;;4.60;4.03;;;;;;;14.90;60.30;99545.17;2336598;81;25697;-79
2022/09/19 20:02:38;;;;;;;8.57;5.10;;;;;;;14.90;60.31;99544.72;2348649;84;25608;-76
2022/09/19 20:06:11;;;;;;;4.72;4.33;;;;;;;14.87;60.37;99548.23;2332763;84;25621;-78
2022/09/19 20:09:49;;;;;;;5.37;4.05;;;;;;;14.87;60.41;99547.36;2348644;84;25934;-77
2022/09/19 20:13:19;;;;;;;4.90;4.45;;;;;;;14.88;60.44;99549.09;2359152;83;25747;-77
2022/09/19 20:20:42;;;;;;;4.58;4.17;;;;;;;14.92;60.46;99546.91;2307133;85;25695;-77
2022/09/19 20:24:10;;;;;;;5.58;4.47;;;;;;;14.98;60.40;99549.91;2310338;85;25716;-79
2022/09/19 20:27:31;;;;;;;4.15;3.60;;;;;;;15.01;60.34;99548.12;2260701;87;25736;-78
2022/09/19 20:31:09;;;;;;;4.37;3.87;;;;;;;15.03;60.31;99544.20;2245229;88;26171;-76
2022/09/19 20:34:41;;;;;;;4.45;4.05;;;;;;;15.04;60.23;99544.17;2087302;94;25840;-77
2022/09/19 20:38:09;;;;;;;6.93;5.30;;;;;;;15.05;60.23;99551.19;2112683;92;28619;-77
2022/09/19 20:41:36;;;;;;;5.42;4.92;;;;;;;15.05;60.27;99545.94;2144692;92;26036;-78
2022/09/19 20:44:53;;;;;;;5.08;4.58;;;;;;;14.99;60.33;99538.10;2139987;90;25827;-80
2022/09/19 20:48:20;;;;;;;5.65;4.65;;;;;;;14.93;60.45;99545.15;2138151;92;29114;-78
2022/09/19 20:51:44;;;;;;;5.50;5.00;;;;;;;14.91;60.60;99546.45;2143908;91;25807;-79
2022/09/19 20:55:17;;;;;;;6.87;4.55;;;;;;;14.91;60.59;99547.77;2154342;89;25875;-79
2022/09/19 20:58:41;;;;;;;5.35;4.95;;;;;;;14.87;60.70;99548.23;2153212;90;25761;-79
2022/09/19 21:02:05;;;;;;;5.65;5.20;;;;;;;14.84;60.79;99543.45;2154257;91;25967;-77